Columbus, MN

7:14 AM CST on February 10, 2016 (GMT -0600)
Bass Wood | | Change Station
CLOSE
Current Station
Personal Weather Station
Location: Forest Lake, MN
Elevation: 892 ft
Nearby Weather Stations

Elev 892 ft 45.25 °N, 93.02 °W | Updated 7 minutes ago

Partly Cloudy
Partly Cloudy
-0.4 °F
Feels Like 0 °F
N
2.2
Wind Variable Wind from WNW

Today
High -- | Low -- °F
--% Chance of Precip.
Yesterday
High -- | Low -- °F
Precip. -- in
Pressure 30.11 in
Visibility 10.0 miles
Clouds Mostly Cloudy 16000 ft
Windchill 0 °F
Dew Point -5 °F
Humidity 80%
Rainfall 0.00 in
Snow Depth Not available.
7:21 AM 5:31 PM
Waxing Crescent, 5% visible
METAR KANE 101245Z 01004KT 10SM BKN160 M16/M19 A3011
Pressure 30.11 in
Visibility 10.0 miles
Clouds Mostly Cloudy 16000 ft
Windchill 0 °F
Dew Point -5 °F
Humidity 80%
Rainfall 0.00 in
Snow Depth Not available.
7:21 AM 5:31 PM
Waxing Crescent, 5% visible
METAR KANE 101245Z 01004KT 10SM BKN160 M16/M19 A3011

10-Day Weather Forecast

Almanac

Astronomy

Feb. 10, 2016 Rise Set
Actual Time
Civil Twilight
Nautical Twilight
Astronomical Twilight
Moon
Length of Visible Light
Length of Day
Tomorrow will be .
, % of the Moon is Illuminated

Today's Extremes

State Highs State Lows

Community

WunderPhotos

Upload Photos

1,891,839 photos uploaded!

WunderBlog® & News

Nearby

Air Quality

  Air Quality AQ Index Pollutant
Not available.

Snow Depth

Station Depth Elevation

Earthquake Activity

City Distance Mag. Time & Date
Minimum magnitude displayed is 2.5.

Coastal Water Temperatures

Place Temperature

Stations

Nearby Weather Stations

Station Location Temp. Windchill Dew Point Humidity Wind Precip. Elev Updated Type
                   

Watches & Warnings

There are currently no watches in effect.